createdAt,value
2018-03-19T00:02:17.509Z,2.17
2018-03-19T00:04:43.846Z,2.10
2018-03-19T00:07:10.213Z,2.20
2018-03-19T00:09:36.542Z,2.17
2018-03-19T00:12:02.909Z,2.20
2018-03-19T00:14:29.302Z,2.07
2018-03-19T00:16:55.803Z,2.20
2018-03-19T00:19:22.138Z,2.10
2018-03-19T00:21:48.570Z,2.20
2018-03-19T00:24:14.925Z,2.07
2018-03-19T00:26:41.273Z,2.10
2018-03-19T00:29:07.693Z,2.00
2018-03-19T00:31:34.155Z,2.03
2018-03-19T00:34:00.488Z,2.10
2018-03-19T00:36:26.862Z,2.07
2018-03-19T00:38:53.251Z,2.10
2018-03-19T00:41:19.587Z,2.30
2018-03-19T00:43:45.952Z,2.10
2018-03-19T00:46:12.291Z,1.87
2018-03-19T00:48:38.667Z,2.07
2018-03-19T00:51:05.033Z,2.00
2018-03-19T00:53:31.370Z,2.10
2018-03-19T00:55:57.760Z,2.03
2018-03-19T00:58:24.085Z,1.90
2018-03-19T01:00:50.482Z,2.00
2018-03-19T01:03:16.851Z,1.97
2018-03-19T01:05:43.226Z,2.07
2018-03-19T01:08:09.555Z,1.80
2018-03-19T01:10:35.935Z,1.90
2018-03-19T01:13:02.277Z,2.13
2018-03-19T01:15:28.609Z,1.70
2018-03-19T01:17:54.978Z,2.03
2018-03-19T01:20:21.346Z,2.03
2018-03-19T01:22:47.733Z,1.90
2018-03-19T01:25:14.094Z,1.90
2018-03-19T01:27:40.479Z,1.90
2018-03-19T01:30:06.879Z,1.90
2018-03-19T01:32:33.253Z,2.03
2018-03-19T01:34:59.585Z,1.80
2018-03-19T01:37:25.939Z,2.03
2018-03-19T01:39:52.280Z,1.73
2018-03-19T01:42:18.660Z,2.03
2018-03-19T01:44:45.034Z,1.90
2018-03-19T01:47:11.423Z,1.70
2018-03-19T01:49:37.755Z,1.70
2018-03-19T01:52:04.148Z,1.80
2018-03-19T01:54:30.516Z,1.70
2018-03-19T01:56:56.867Z,1.70
2018-03-19T01:59:23.249Z,1.73
2018-03-19T02:01:49.583Z,1.80
2018-03-19T02:06:57.329Z,1.80
2018-03-19T02:09:23.737Z,1.70
2018-03-19T02:11:50.143Z,1.90
2018-03-19T02:14:16.509Z,1.70
2018-03-19T02:16:42.875Z,1.60
2018-03-19T02:19:09.281Z,1.77
2018-03-19T02:21:35.672Z,2.00
2018-03-19T02:24:02.098Z,1.80
2018-03-19T02:26:28.496Z,1.60
2018-03-19T02:28:54.909Z,1.80
2018-03-19T02:31:21.258Z,1.80
2018-03-19T02:33:47.630Z,1.40
2018-03-19T02:36:13.994Z,1.57
2018-03-19T02:38:40.446Z,1.60
2018-03-19T02:41:06.847Z,1.70
2018-03-19T02:43:33.201Z,1.47
2018-03-19T02:45:59.622Z,1.73
2018-03-19T02:48:25.965Z,1.57
2018-03-19T02:50:52.352Z,1.53
2018-03-19T02:53:18.682Z,1.33
2018-03-19T02:55:45.085Z,1.50
2018-03-19T02:58:11.431Z,1.60
2018-03-19T03:00:37.802Z,1.70
2018-03-19T03:03:04.147Z,1.50
2018-03-19T03:05:30.584Z,1.63
2018-03-19T03:07:56.967Z,1.40
2018-03-19T03:10:23.432Z,1.47
2018-03-19T03:12:49.943Z,1.40
2018-03-19T03:15:16.274Z,1.50
2018-03-19T03:17:42.627Z,1.47
2018-03-19T03:20:08.983Z,1.50
2018-03-19T03:22:35.443Z,1.50
2018-03-19T03:25:01.864Z,1.53
2018-03-19T03:27:28.205Z,1.50
2018-03-19T03:29:54.542Z,1.40
2018-03-19T03:32:20.900Z,1.40
2018-03-19T03:34:47.235Z,1.33
2018-03-19T03:37:13.598Z,1.20
2018-03-19T03:39:39.933Z,1.50
2018-03-19T03:42:06.350Z,1.37
2018-03-19T03:44:32.730Z,1.50
2018-03-19T03:46:59.106Z,1.40
2018-03-19T03:49:25.470Z,1.50
2018-03-19T03:51:51.856Z,1.43
2018-03-19T03:54:18.402Z,1.40
2018-03-19T03:56:44.754Z,1.20
2018-03-19T03:59:11.141Z,1.40
2018-03-19T04:01:37.494Z,1.50
2018-03-19T04:04:03.889Z,1.60
2018-03-19T04:06:30.257Z,1.20
2018-03-19T04:08:56.627Z,1.50
2018-03-19T04:11:23.071Z,1.33
2018-03-19T04:13:49.437Z,1.40
2018-03-19T04:16:15.808Z,1.40
2018-03-19T04:18:42.145Z,1.47
2018-03-19T04:21:08.477Z,1.40
2018-03-19T04:23:34.806Z,1.40
2018-03-19T04:26:01.187Z,1.30
2018-03-19T04:28:27.630Z,1.20
2018-03-19T04:30:54.109Z,1.23
2018-03-19T04:33:20.472Z,1.30
2018-03-19T04:35:46.817Z,1.20
2018-03-19T04:38:13.225Z,1.77
2018-03-19T04:40:39.560Z,1.40
2018-03-19T04:45:38.465Z,1.20
2018-03-19T04:48:04.833Z,1.40
2018-03-19T04:50:31.279Z,1.40
2018-03-19T04:52:57.640Z,1.30
2018-03-19T04:55:24.144Z,1.57
2018-03-19T04:57:50.517Z,1.70
2018-03-19T05:00:16.931Z,1.37
2018-03-19T05:02:43.253Z,1.50
2018-03-19T05:05:09.638Z,1.50
2018-03-19T05:07:35.999Z,1.57
2018-03-19T05:10:02.384Z,1.77
2018-03-19T05:12:28.810Z,1.83
2018-03-19T05:14:55.178Z,2.30
2018-03-19T05:17:21.667Z,2.17
2018-03-19T05:19:48.045Z,2.30
2018-03-19T05:22:14.470Z,2.17
2018-03-19T05:24:40.897Z,2.30
2018-03-19T05:27:07.246Z,1.97
2018-03-19T05:29:33.580Z,2.27
2018-03-19T05:31:59.972Z,2.47
2018-03-19T05:34:26.366Z,2.03
2018-03-19T05:36:52.753Z,2.13
2018-03-19T05:39:20.040Z,2.03
2018-03-19T05:41:46.837Z,1.90
2018-03-19T05:44:13.171Z,1.83
2018-03-19T05:46:39.507Z,1.90
2018-03-19T05:49:06.090Z,2.03
2018-03-19T05:51:32.498Z,1.70
2018-03-19T05:53:59.203Z,1.87
2018-03-19T05:56:25.560Z,2.23
2018-03-19T05:58:52.387Z,2.20
2018-03-19T06:01:18.850Z,2.03
2018-03-19T06:03:45.271Z,2.07
2018-03-19T06:06:11.623Z,1.93
2018-03-19T06:08:37.995Z,2.10
2018-03-19T06:11:04.452Z,2.47
2018-03-19T06:13:30.858Z,2.50
2018-03-19T06:15:57.328Z,2.10
2018-03-19T06:18:23.679Z,2.80
2018-03-19T06:20:50.047Z,2.50
2018-03-19T06:23:16.479Z,2.30
2018-03-19T06:25:42.861Z,2.67
2018-03-19T06:28:09.258Z,2.73
2018-03-19T06:30:35.766Z,2.83
2018-03-19T06:33:02.154Z,2.27
2018-03-19T06:35:28.519Z,2.30
2018-03-19T06:37:55.308Z,2.50
2018-03-19T06:40:22.982Z,2.13
2018-03-19T06:42:49.348Z,1.90
2018-03-19T06:45:15.845Z,2.23
2018-03-19T06:47:42.224Z,2.20
2018-03-19T06:50:08.663Z,1.93
2018-03-19T06:52:35.700Z,2.20
2018-03-19T06:55:02.199Z,1.80
2018-03-19T06:57:28.537Z,2.03
2018-03-19T07:00:01.924Z,1.90
2018-03-19T07:02:28.707Z,2.00
2018-03-19T07:04:55.258Z,1.90
2018-03-19T07:07:21.621Z,2.20
2018-03-19T07:09:48.471Z,2.00
2018-03-19T07:12:15.410Z,1.87
2018-03-19T07:14:41.904Z,2.10
2018-03-19T07:17:08.278Z,1.93
2018-03-19T07:19:35.434Z,1.70
2018-03-19T07:22:02.170Z,1.87
2018-03-19T07:24:29.133Z,1.80
2018-03-19T07:26:55.925Z,2.30
2018-03-19T07:29:22.523Z,1.73
2018-03-19T07:31:49.358Z,2.10
2018-03-19T07:34:16.267Z,2.00
2018-03-19T07:36:42.770Z,1.97
2018-03-19T07:39:09.248Z,2.20
2018-03-19T07:41:35.752Z,2.00
2018-03-19T07:44:03.035Z,1.80
2018-03-19T07:46:32.025Z,1.83
2018-03-19T07:48:58.672Z,2.10
2018-03-19T07:51:25.481Z,2.07
2018-03-19T07:53:52.910Z,2.10
2018-03-19T07:56:19.847Z,2.10
2018-03-19T07:58:46.827Z,2.00
2018-03-19T08:01:13.969Z,1.83
2018-03-19T08:03:41.164Z,1.70
2018-03-19T08:06:07.842Z,2.17
2018-03-19T08:08:34.958Z,1.93
2018-03-19T08:11:01.952Z,1.90
2018-03-19T08:13:28.847Z,2.10
2018-03-19T08:15:55.850Z,1.80
2018-03-19T08:18:22.487Z,2.10
2018-03-19T08:20:49.382Z,2.00
2018-03-19T08:23:16.231Z,1.90
2018-03-19T08:25:43.362Z,2.10
2018-03-19T08:28:10.115Z,2.20
2018-03-19T08:30:36.879Z,2.10
2018-03-19T08:33:04.528Z,2.20
2018-03-19T08:35:31.635Z,1.83
2018-03-19T08:37:59.255Z,1.90
2018-03-19T08:40:27.333Z,1.80
2018-03-19T08:42:53.943Z,2.30
2018-03-19T08:45:20.879Z,2.27
2018-03-19T08:47:47.849Z,1.90
2018-03-19T08:50:14.394Z,1.90
2018-03-19T08:52:40.840Z,2.47
2018-03-19T08:55:07.243Z,2.10
2018-03-19T08:57:33.613Z,2.30
2018-03-19T09:00:00.047Z,2.20
2018-03-19T09:02:26.407Z,2.03
2018-03-19T09:04:52.794Z,2.13
2018-03-19T09:07:19.665Z,2.43
2018-03-19T09:09:46.232Z,2.20
2018-03-19T09:12:12.701Z,2.20
2018-03-19T09:14:40.010Z,1.93
2018-03-19T09:17:07.476Z,2.33
2018-03-19T09:19:33.913Z,2.00
2018-03-19T09:22:00.464Z,2.50
2018-03-19T09:24:28.122Z,2.40
2018-03-19T09:26:55.381Z,2.47
2018-03-19T09:29:24.289Z,2.00
2018-03-19T09:31:51.158Z,2.37
2018-03-19T09:34:17.732Z,2.07
2018-03-19T09:36:44.257Z,2.30
2018-03-19T09:39:10.651Z,2.30
2018-03-19T09:41:37.200Z,2.10
2018-03-19T09:44:04.286Z,2.30
2018-03-19T09:46:31.197Z,2.50
2018-03-19T09:48:57.876Z,2.20
2018-03-19T09:51:24.542Z,2.30
2018-03-19T09:53:51.679Z,2.60
2018-03-19T09:56:18.524Z,2.77
2018-03-19T09:58:45.483Z,2.47
2018-03-19T10:01:12.084Z,2.97
2018-03-19T10:03:38.516Z,2.63
2018-03-19T10:06:05.198Z,2.80
2018-03-19T10:08:31.999Z,2.80
2018-03-19T10:10:58.866Z,3.10
2018-03-19T10:13:25.719Z,2.80
2018-03-19T10:15:52.150Z,2.83
2018-03-19T10:18:18.705Z,2.73
2018-03-19T10:20:45.218Z,3.00
2018-03-19T10:23:12.043Z,3.20
2018-03-19T10:25:38.639Z,3.10
2018-03-19T10:28:05.673Z,3.30
2018-03-19T10:30:32.665Z,3.33
2018-03-19T10:32:59.728Z,3.20
2018-03-19T10:35:26.178Z,3.50
2018-03-19T10:37:53.339Z,3.20
2018-03-19T10:40:28.224Z,3.23
2018-03-19T10:42:55.173Z,3.17
2018-03-19T10:45:22.177Z,3.20
2018-03-19T10:47:49.009Z,3.20
2018-03-19T10:50:15.814Z,3.00
2018-03-19T10:52:42.526Z,3.67
2018-03-19T10:55:09.348Z,3.00
2018-03-19T10:57:36.737Z,3.10
2018-03-19T11:00:03.519Z,3.17
2018-03-19T11:02:30.782Z,3.37
2018-03-19T11:05:01.949Z,3.07
2018-03-19T11:07:29.581Z,3.27
2018-03-19T11:09:56.609Z,3.30
2018-03-19T11:12:23.764Z,3.30
2018-03-19T11:14:50.896Z,3.10
2018-03-19T11:17:17.584Z,3.17
2018-03-19T11:19:44.826Z,3.10
2018-03-19T11:22:11.516Z,3.07
2018-03-19T11:24:38.259Z,3.57
2018-03-19T11:27:05.064Z,3.70
2018-03-19T11:29:31.667Z,2.67
2018-03-19T11:31:58.137Z,3.20
2018-03-19T11:34:24.829Z,3.37
2018-03-19T11:36:51.802Z,3.23
2018-03-19T11:41:58.483Z,3.30
2018-03-19T11:44:25.323Z,2.77
2018-03-19T11:46:51.870Z,3.10
2018-03-19T11:49:18.724Z,2.90
2018-03-19T11:51:47.430Z,3.30
2018-03-19T11:54:14.578Z,3.03
2018-03-19T11:56:41.599Z,3.20
2018-03-19T12:07:05.123Z,2.83
2018-03-19T12:09:31.979Z,2.80
2018-03-19T12:11:58.401Z,2.67
2018-03-19T12:14:25.146Z,3.03
2018-03-19T12:16:51.877Z,2.70
2018-03-19T12:19:18.716Z,2.53
2018-03-19T12:21:45.340Z,2.60
2018-03-19T12:24:12.171Z,2.47
2018-03-19T12:26:38.825Z,2.70
2018-03-19T12:29:05.269Z,2.90
2018-03-19T12:31:31.788Z,2.67
2018-03-19T12:33:58.644Z,2.70
2018-03-19T12:36:25.213Z,2.77
2018-03-19T12:38:52.021Z,2.80
2018-03-19T12:41:18.674Z,2.63
2018-03-19T12:43:45.403Z,3.70
2018-03-19T12:46:12.080Z,3.40
2018-03-19T12:51:10.333Z,3.67
2018-03-19T12:53:37.218Z,3.30
2018-03-19T12:56:04.045Z,3.40
2018-03-19T12:58:31.061Z,3.60
2018-03-19T13:08:54.313Z,3.90
2018-03-19T13:11:21.333Z,3.97
2018-03-19T13:13:48.484Z,3.93
2018-03-19T13:16:15.122Z,3.57
2018-03-19T13:18:42.230Z,3.97
2018-03-19T13:21:09.121Z,3.70
2018-03-19T13:23:35.758Z,3.47
2018-03-19T13:26:02.722Z,3.83
2018-03-19T13:28:29.981Z,3.80
2018-03-19T13:30:57.086Z,3.80
2018-03-19T13:33:25.092Z,4.23
2018-03-19T13:35:53.902Z,4.20
2018-03-19T13:38:21.145Z,4.03
2018-03-19T13:40:48.195Z,4.30
2018-03-19T13:43:15.320Z,3.50
2018-03-19T13:45:42.020Z,3.73
2018-03-19T13:48:09.772Z,3.67
2018-03-19T13:50:36.469Z,3.83
2018-03-19T13:53:03.322Z,3.80
2018-03-19T13:55:29.823Z,3.90
2018-03-19T13:57:57.564Z,4.17
2018-03-19T14:03:04.528Z,3.90
2018-03-19T14:05:31.530Z,4.10
2018-03-19T14:07:58.115Z,3.53
2018-03-19T14:10:24.927Z,4.07
2018-03-19T14:12:51.400Z,3.90
2018-03-19T14:15:17.809Z,4.17
2018-03-19T14:17:44.342Z,3.93
2018-03-19T14:20:10.941Z,4.13
2018-03-19T14:22:37.314Z,4.40
2018-03-19T14:25:03.722Z,4.20
2018-03-19T14:27:30.132Z,3.97
2018-03-19T14:29:56.683Z,4.30
2018-03-19T14:32:23.440Z,4.20
2018-03-19T14:34:49.832Z,4.37
2018-03-19T14:37:16.265Z,4.53
2018-03-19T14:39:42.693Z,4.57
2018-03-19T14:42:09.206Z,4.27
2018-03-19T14:44:36.441Z,4.07
2018-03-19T14:47:03.124Z,4.60
2018-03-19T14:49:29.724Z,4.47
2018-03-19T14:51:56.083Z,4.43
2018-03-19T14:54:22.452Z,4.60
2018-03-19T14:56:49.073Z,4.23
2018-03-19T14:59:15.457Z,4.50
2018-03-19T15:01:41.949Z,4.50
2018-03-19T15:04:08.295Z,4.40
2018-03-19T15:06:34.739Z,4.33
2018-03-19T15:09:01.082Z,4.30
2018-03-19T15:11:27.439Z,4.80
2018-03-19T15:13:53.847Z,4.40
2018-03-19T15:16:20.201Z,4.10
2018-03-19T15:18:46.818Z,4.63
2018-03-19T15:21:13.173Z,5.00
2018-03-19T15:23:39.606Z,5.27
2018-03-19T15:26:05.957Z,5.63
2018-03-19T15:28:32.313Z,4.83
2018-03-19T15:30:58.818Z,6.40
2018-03-19T15:33:25.297Z,6.80
2018-03-19T15:35:51.770Z,7.67
2018-03-19T15:38:18.118Z,7.70
2018-03-19T15:40:44.834Z,8.00
2018-03-19T15:43:11.192Z,8.73
2018-03-19T15:45:37.585Z,9.63
2018-03-19T15:48:03.979Z,9.57
2018-03-19T15:50:30.325Z,9.40
2018-03-19T15:52:56.807Z,10.40
2018-03-19T15:55:23.196Z,11.03
2018-03-19T15:57:49.578Z,10.70
2018-03-19T16:00:15.993Z,11.20
2018-03-19T16:02:42.427Z,11.00
2018-03-19T16:05:08.798Z,11.37
2018-03-19T16:07:35.185Z,11.27
2018-03-19T16:10:01.563Z,11.57
2018-03-19T16:12:27.988Z,11.17
2018-03-19T16:14:54.576Z,10.90
2018-03-19T16:17:21.038Z,11.50
2018-03-19T16:19:47.449Z,10.77
2018-03-19T16:22:13.838Z,11.30
2018-03-19T16:24:40.182Z,10.10
2018-03-19T16:27:06.525Z,10.97
2018-03-19T16:29:32.937Z,9.93
2018-03-19T16:31:59.306Z,10.07
2018-03-19T16:34:25.673Z,9.67
2018-03-19T16:36:52.008Z,9.53
2018-03-19T16:39:18.386Z,9.47
2018-03-19T16:41:44.757Z,9.27
2018-03-19T16:44:11.102Z,9.77
2018-03-19T16:46:37.506Z,8.83
2018-03-19T16:49:03.918Z,8.57
2018-03-19T16:51:30.320Z,9.00
2018-03-19T16:53:56.800Z,8.47
2018-03-19T16:56:23.305Z,8.27
2018-03-19T16:58:49.634Z,7.80
2018-03-19T17:01:16.009Z,7.50
2018-03-19T17:03:42.405Z,7.90
2018-03-19T17:06:08.788Z,8.10
2018-03-19T17:08:35.119Z,7.70
2018-03-19T17:11:01.453Z,8.13
2018-03-19T17:13:27.844Z,7.50
2018-03-19T17:15:54.194Z,6.60
2018-03-19T17:18:20.604Z,7.27
2018-03-19T17:20:46.955Z,6.30
2018-03-19T17:23:13.330Z,7.43
2018-03-19T17:25:39.661Z,6.97
2018-03-19T17:28:06.006Z,6.23
2018-03-19T17:30:32.459Z,6.53
2018-03-19T17:32:58.842Z,5.83
2018-03-19T17:35:25.215Z,6.70
2018-03-19T17:37:51.549Z,6.30
2018-03-19T17:40:17.995Z,6.07
2018-03-19T17:42:44.346Z,5.93
2018-03-19T17:45:10.708Z,6.10
2018-03-19T17:47:37.097Z,5.40
2018-03-19T17:50:03.430Z,5.80
2018-03-19T17:52:29.760Z,5.13
2018-03-19T17:54:56.145Z,5.20
2018-03-19T17:57:22.542Z,5.30
2018-03-19T17:59:48.879Z,5.00
2018-03-19T18:02:15.235Z,4.83
2018-03-19T18:04:41.591Z,4.90
2018-03-19T18:07:07.976Z,4.53
2018-03-19T18:09:34.292Z,4.87
2018-03-19T18:12:00.629Z,4.83
2018-03-19T18:14:26.985Z,5.03
2018-03-19T18:16:53.339Z,5.10
2018-03-19T18:19:19.743Z,5.00
2018-03-19T18:21:46.072Z,4.93
2018-03-19T18:24:12.463Z,5.17
2018-03-19T18:26:38.786Z,4.87
2018-03-19T18:29:05.147Z,4.77
2018-03-19T18:31:31.483Z,4.63
2018-03-19T18:33:57.863Z,4.73
2018-03-19T18:36:24.234Z,4.67
2018-03-19T18:38:50.601Z,4.63
2018-03-19T18:41:17.192Z,4.80
2018-03-19T18:43:43.650Z,4.63
2018-03-19T18:46:10.015Z,4.43
2018-03-19T18:48:36.341Z,4.47
2018-03-19T18:51:02.778Z,4.40
2018-03-19T18:53:29.204Z,3.97
2018-03-19T18:55:55.532Z,4.77
2018-03-19T18:58:22.101Z,4.20
2018-03-19T19:00:48.485Z,4.00
2018-03-19T19:03:14.891Z,4.20
2018-03-19T19:05:41.221Z,4.30
2018-03-19T19:08:07.605Z,4.17
2018-03-19T19:10:33.998Z,3.90
2018-03-19T19:13:00.379Z,3.83
2018-03-19T19:15:26.720Z,4.20
2018-03-19T19:17:53.042Z,4.27
2018-03-19T19:20:19.390Z,3.80
2018-03-19T19:22:45.726Z,3.53
2018-03-19T19:25:12.089Z,3.97
2018-03-19T19:27:38.413Z,3.73
2018-03-19T19:30:04.765Z,3.73
2018-03-19T19:32:31.088Z,3.80
2018-03-19T19:34:57.493Z,3.37
2018-03-19T19:37:23.914Z,3.67
2018-03-19T19:39:50.282Z,3.50
2018-03-19T19:42:16.603Z,3.60
2018-03-19T19:44:42.950Z,3.63
2018-03-19T19:47:09.310Z,3.43
2018-03-19T19:49:35.687Z,3.10
2018-03-19T19:52:02.019Z,3.03
2018-03-19T19:54:28.435Z,3.10
2018-03-19T19:56:54.770Z,3.00
2018-03-19T19:59:21.137Z,3.17
2018-03-19T20:01:47.461Z,3.20
2018-03-19T20:04:13.940Z,3.00
2018-03-19T20:06:40.266Z,3.40
2018-03-19T20:09:06.652Z,3.43
2018-03-19T20:11:32.980Z,3.00
2018-03-19T20:13:59.342Z,2.80
2018-03-19T20:16:25.682Z,3.00
2018-03-19T20:18:52.093Z,2.90
2018-03-19T20:21:18.459Z,3.33
2018-03-19T20:23:44.826Z,2.90
2018-03-19T20:26:11.200Z,2.90
2018-03-19T20:28:37.529Z,3.10
2018-03-19T20:31:03.856Z,2.70
2018-03-19T20:33:30.197Z,2.87
2018-03-19T20:35:56.560Z,2.60
2018-03-19T20:38:23.026Z,2.70
2018-03-19T20:40:49.380Z,2.87
2018-03-19T20:43:15.712Z,2.80
2018-03-19T20:45:42.140Z,2.40
2018-03-19T20:48:08.465Z,2.57
2018-03-19T20:50:34.831Z,3.00
2018-03-19T20:53:01.192Z,2.60
2018-03-19T20:55:27.509Z,2.63
2018-03-19T20:57:53.891Z,2.73
2018-03-19T21:00:20.274Z,2.50
2018-03-19T21:02:46.606Z,2.10
2018-03-19T21:05:13.050Z,2.50
2018-03-19T21:07:39.450Z,2.37
2018-03-19T21:10:05.785Z,2.20
2018-03-19T21:12:32.158Z,2.63
2018-03-19T21:14:58.502Z,2.47
2018-03-19T21:17:24.987Z,2.50
2018-03-19T21:19:51.364Z,2.43
2018-03-19T21:22:17.872Z,2.50
2018-03-19T21:24:44.201Z,2.30
2018-03-19T21:27:10.537Z,2.53
2018-03-19T21:29:36.883Z,2.23
2018-03-19T21:32:03.218Z,2.70
2018-03-19T21:34:29.542Z,2.70
2018-03-19T21:36:55.875Z,2.47
2018-03-19T21:39:22.270Z,2.53
2018-03-19T21:41:48.623Z,2.20
2018-03-19T21:44:14.965Z,2.20
2018-03-19T21:46:41.349Z,2.57
2018-03-19T21:49:07.714Z,2.30
2018-03-19T21:51:34.046Z,2.30
2018-03-19T21:54:00.441Z,2.40
2018-03-19T21:56:26.909Z,2.47
2018-03-19T21:58:53.169Z,2.40
2018-03-19T22:01:19.630Z,2.00
2018-03-19T22:03:45.958Z,2.20
2018-03-19T22:06:12.290Z,2.23
2018-03-19T22:08:38.674Z,2.20
2018-03-19T22:11:05.071Z,2.10
2018-03-19T22:13:31.438Z,2.30
2018-03-19T22:15:57.811Z,2.20
2018-03-19T22:18:24.173Z,2.20
2018-03-19T22:20:50.513Z,2.20
2018-03-19T22:23:16.883Z,2.23
2018-03-19T22:25:43.221Z,2.00
2018-03-19T22:28:09.546Z,2.17
2018-03-19T22:30:35.888Z,2.20
2018-03-19T22:33:02.245Z,2.13
2018-03-19T22:35:28.574Z,2.00
2018-03-19T22:37:54.948Z,2.00
2018-03-19T22:40:21.344Z,2.20
2018-03-19T22:42:47.730Z,2.20
2018-03-19T22:45:14.064Z,2.00
2018-03-19T22:47:40.434Z,2.30
2018-03-19T22:50:06.764Z,2.07
2018-03-19T22:52:33.174Z,1.90
2018-03-19T22:54:59.509Z,1.97
2018-03-19T22:57:25.841Z,1.83
2018-03-19T22:59:52.191Z,2.30
2018-03-19T23:02:18.534Z,2.00
2018-03-19T23:04:44.922Z,2.10
2018-03-19T23:07:11.250Z,1.80
2018-03-19T23:09:37.577Z,2.10
2018-03-19T23:12:03.946Z,2.17
2018-03-19T23:14:30.272Z,2.10
2018-03-19T23:16:56.602Z,2.00
2018-03-19T23:19:22.944Z,2.20
2018-03-19T23:21:49.304Z,2.20
2018-03-19T23:24:15.738Z,1.90
2018-03-19T23:26:42.297Z,1.93
2018-03-19T23:29:08.667Z,1.90
2018-03-19T23:31:35.006Z,2.10
2018-03-19T23:34:01.385Z,2.00
2018-03-19T23:36:27.718Z,2.00
2018-03-19T23:38:54.123Z,2.00
2018-03-19T23:41:20.553Z,1.90
2018-03-19T23:43:46.940Z,1.77
2018-03-19T23:46:13.262Z,1.87
2018-03-19T23:48:39.715Z,1.77
2018-03-19T23:51:06.056Z,1.80
2018-03-19T23:53:32.446Z,2.00
2018-03-19T23:55:58.809Z,1.90
2018-03-19T23:58:25.162Z,1.83
